sensor_id;sensor_type;location;lat;lon;timestamp;P1;P2;P0
50956;PMS5003;55361;50.876;20.634;2024-02-04T02:40:45;3;3;3
50956;PMS5003;55361;50.876;20.634;2024-02-04T02:50:15;3;3;3
50956;PMS5003;55361;50.876;20.634;2024-02-04T03:00:10;3;3;3
50956;PMS5003;55361;50.876;20.634;2024-02-04T03:10:10;4;4;2
50956;PMS5003;55361;50.876;20.634;2024-02-04T03:20:08;4;4;2
50956;PMS5003;55361;50.876;20.634;2024-02-04T03:30:04;4;4;2
50956;PMS5003;55361;50.876;20.634;2024-02-04T03:40:02;2;2;2
50956;PMS5003;55361;50.876;20.634;2024-02-04T03:50:11;2;2;2
50956;PMS5003;55361;50.876;20.634;2024-02-04T04:00:07;2;2;2
50956;PMS5003;55361;50.876;20.634;2024-02-04T04:10:05;3;1;1
50956;PMS5003;55361;50.876;20.634;2024-02-04T04:20:14;3;1;1
50956;PMS5003;55361;50.876;20.634;2024-02-04T04:30:11;3;1;1
50956;PMS5003;55361;50.876;20.634;2024-02-04T04:40:14;1;1;1
50956;PMS5003;55361;50.876;20.634;2024-02-04T04:50:13;1;1;1
50956;PMS5003;55361;50.876;20.634;2024-02-04T05:00:11;1;1;1
50956;PMS5003;55361;50.876;20.634;2024-02-04T05:10:02;2;1;1
50956;PMS5003;55361;50.876;20.634;2024-02-04T05:20:10;2;1;1
50956;PMS5003;55361;50.876;20.634;2024-02-04T05:30:03;2;1;1
50956;PMS5003;55361;50.876;20.634;2024-02-04T05:40:08;1;1;0
50956;PMS5003;55361;50.876;20.634;2024-02-04T05:50:13;1;1;0
50956;PMS5003;55361;50.876;20.634;2024-02-04T06:00:07;1;1;0
50956;PMS5003;55361;50.876;20.634;2024-02-04T06:10:09;3;3;2
50956;PMS5003;55361;50.876;20.634;2024-02-04T06:20:11;3;3;2
50956;PMS5003;55361;50.876;20.634;2024-02-04T06:30:14;3;3;2
50956;PMS5003;55361;50.876;20.634;2024-02-04T06:40:06;2;2;1
50956;PMS5003;55361;50.876;20.634;2024-02-04T06:50:06;2;2;1
50956;PMS5003;55361;50.876;20.634;2024-02-04T07:00:08;2;2;1
50956;PMS5003;55361;50.876;20.634;2024-02-04T07:10:08;5;4;3
50956;PMS5003;55361;50.876;20.634;2024-02-04T07:20:02;5;4;3
50956;PMS5003;55361;50.876;20.634;2024-02-04T07:30:05;5;4;3
50956;PMS5003;55361;50.876;20.634;2024-02-04T07:40:14;3;3;2
50956;PMS5003;55361;50.876;20.634;2024-02-04T07:50:10;3;3;2
50956;PMS5003;55361;50.876;20.634;2024-02-04T08:00:11;3;3;2
50956;PMS5003;55361;50.876;20.634;2024-02-04T08:10:05;5;4;3
50956;PMS5003;55361;50.876;20.634;2024-02-04T08:20:12;5;4;3
50956;PMS5003;55361;50.876;20.634;2024-02-04T08:30:02;5;4;3
50956;PMS5003;55361;50.876;20.634;2024-02-04T08:40:08;2;1;1
50956;PMS5003;55361;50.876;20.634;2024-02-04T08:50:02;2;1;1
50956;PMS5003;55361;50.876;20.634;2024-02-04T09:00:12;2;1;1
50956;PMS5003;55361;50.876;20.634;2024-02-04T09:10:13;3;3;3
50956;PMS5003;55361;50.876;20.634;2024-02-04T09:20:01;3;3;3
50956;PMS5003;55361;50.876;20.634;2024-02-04T09:30:15;3;3;3
50956;PMS5003;55361;50.876;20.634;2024-02-04T09:50:01;2;1;1
50956;PMS5003;55361;50.876;20.634;2024-02-04T10:00:09;2;1;1
50956;PMS5003;55361;50.876;20.634;2024-02-04T10:10:08;2;1;0
50956;PMS5003;55361;50.876;20.634;2024-02-04T10:20:02;2;1;0
50956;PMS5003;55361;50.876;20.634;2024-02-04T10:30:02;2;1;0
50956;PMS5003;55361;50.876;20.634;2024-02-04T10:40:12;5;4;3
50956;PMS5003;55361;50.876;20.634;2024-02-04T10:50:16;5;4;3
50956;PMS5003;55361;50.876;20.634;2024-02-04T11:00:06;5;4;3
50956;PMS5003;55361;50.876;20.634;2024-02-04T11:10:11;2;2;1
50956;PMS5003;55361;50.876;20.634;2024-02-04T11:21:02;2;2;1
50956;PMS5003;55361;50.876;20.634;2024-02-04T11:30:03;2;2;1
50956;PMS5003;55361;50.876;20.634;2024-02-04T11:40:16;5;4;2
50956;PMS5003;55361;50.876;20.634;2024-02-04T11:50:10;5;4;2
50956;PMS5003;55361;50.876;20.634;2024-02-04T12:00:01;5;4;2
50956;PMS5003;55361;50.876;20.634;2024-02-04T12:10:08;7;6;4
50956;PMS5003;55361;50.876;20.634;2024-02-04T12:20:07;7;6;4
50956;PMS5003;55361;50.876;20.634;2024-02-04T12:30:10;7;6;4
50956;PMS5003;55361;50.876;20.634;2024-02-04T12:40:20;3;1;1
50956;PMS5003;55361;50.876;20.634;2024-02-04T12:50:08;3;1;1
50956;PMS5003;55361;50.876;20.634;2024-02-04T13:00:22;3;1;1
50956;PMS5003;55361;50.876;20.634;2024-02-04T13:10:02;7;6;4
50956;PMS5003;55361;50.876;20.634;2024-02-04T13:20:02;7;6;4
50956;PMS5003;55361;50.876;20.634;2024-02-04T13:30:14;7;6;4
50956;PMS5003;55361;50.876;20.634;2024-02-04T13:40:05;5;5;4
50956;PMS5003;55361;50.876;20.634;2024-02-04T13:50:09;5;5;4
50956;PMS5003;55361;50.876;20.634;2024-02-04T14:00:10;5;5;4
50956;PMS5003;55361;50.876;20.634;2024-02-04T14:10:18;5;5;3
50956;PMS5003;55361;50.876;20.634;2024-02-04T14:20:10;5;5;3
50956;PMS5003;55361;50.876;20.634;2024-02-04T14:30:16;5;5;3
50956;PMS5003;55361;50.876;20.634;2024-02-04T14:40:07;5;5;3
50956;PMS5003;55361;50.876;20.634;2024-02-04T14:50:19;5;5;3
50956;PMS5003;55361;50.876;20.634;2024-02-04T15:00:17;5;5;3
50956;PMS5003;55361;50.876;20.634;2024-02-04T15:10:07;18;18;15
50956;PMS5003;55361;50.876;20.634;2024-02-04T15:20:13;18;18;15
50956;PMS5003;55361;50.876;20.634;2024-02-04T15:30:02;18;18;15
50956;PMS5003;55361;50.876;20.634;2024-02-04T15:40:09;6;5;4
50956;PMS5003;55361;50.876;20.634;2024-02-04T15:50:02;6;5;4
50956;PMS5003;55361;50.876;20.634;2024-02-04T16:00:28;6;5;4
50956;PMS5003;55361;50.876;20.634;2024-02-04T16:20:18;6;5;5
50956;PMS5003;55361;50.876;20.634;2024-02-04T16:30:02;6;5;5
50956;PMS5003;55361;50.876;20.634;2024-02-04T16:40:06;11;9;6
50956;PMS5003;55361;50.876;20.634;2024-02-04T16:50:15;11;9;6
50956;PMS5003;55361;50.876;20.634;2024-02-04T17:00:02;11;9;6
50956;PMS5003;55361;50.876;20.634;2024-02-04T17:20:06;15;14;10
50956;PMS5003;55361;50.876;20.634;2024-02-04T17:30:20;15;14;10
50956;PMS5003;55361;50.876;20.634;2024-02-04T17:50:13;14;10;7
50956;PMS5003;55361;50.876;20.634;2024-02-04T18:00:19;14;10;7
50956;PMS5003;55361;50.876;20.634;2024-02-04T18:20:12;8;8;6
50956;PMS5003;55361;50.876;20.634;2024-02-04T18:30:13;8;8;6
50956;PMS5003;55361;50.876;20.634;2024-02-04T18:40:08;8;8;6
50956;PMS5003;55361;50.876;20.634;2024-02-04T18:50:08;6;5;3
50956;PMS5003;55361;50.876;20.634;2024-02-04T19:00:06;6;5;3
50956;PMS5003;55361;50.876;20.634;2024-02-04T19:10:14;6;5;3
50956;PMS5003;55361;50.876;20.634;2024-02-04T19:20:04;4;3;2
50956;PMS5003;55361;50.876;20.634;2024-02-04T19:30:16;4;3;2
50956;PMS5003;55361;50.876;20.634;2024-02-04T19:40:06;4;3;2
50956;PMS5003;55361;50.876;20.634;2024-02-04T19:50:06;15;13;6
50956;PMS5003;55361;50.876;20.634;2024-02-04T20:00:02;15;13;6
50956;PMS5003;55361;50.876;20.634;2024-02-04T20:10:05;15;13;6
50956;PMS5003;55361;50.876;20.634;2024-02-04T20:20:14;5;4;2
50956;PMS5003;55361;50.876;20.634;2024-02-04T20:30:16;5;4;2
50956;PMS5003;55361;50.876;20.634;2024-02-04T20:40:08;5;4;2
50956;PMS5003;55361;50.876;20.634;2024-02-04T20:50:10;4;3;2
50956;PMS5003;55361;50.876;20.634;2024-02-04T21:00:07;4;3;2
50956;PMS5003;55361;50.876;20.634;2024-02-04T21:10:12;4;3;2
50956;PMS5003;55361;50.876;20.634;2024-02-04T21:20:15;4;3;2
50956;PMS5003;55361;50.876;20.634;2024-02-04T21:30:13;4;3;2
50956;PMS5003;55361;50.876;20.634;2024-02-04T21:40:13;4;3;2
50956;PMS5003;55361;50.876;20.634;2024-02-04T21:50:15;5;5;4
50956;PMS5003;55361;50.876;20.634;2024-02-04T22:00:13;5;5;4
50956;PMS5003;55361;50.876;20.634;2024-02-04T22:10:02;5;5;4
50956;PMS5003;55361;50.876;20.634;2024-02-04T22:20:05;3;3;3
50956;PMS5003;55361;50.876;20.634;2024-02-04T22:30:16;3;3;3
50956;PMS5003;55361;50.876;20.634;2024-02-04T22:40:09;3;3;3
50956;PMS5003;55361;50.876;20.634;2024-02-04T22:50:08;3;2;2
50956;PMS5003;55361;50.876;20.634;2024-02-04T23:00:37;3;2;2
50956;PMS5003;55361;50.876;20.634;2024-02-04T23:10:11;5;4;4
50956;PMS5003;55361;50.876;20.634;2024-02-04T23:20:13;5;4;4
50956;PMS5003;55361;50.876;20.634;2024-02-04T23:30:14;5;4;4
50956;PMS5003;55361;50.876;20.634;2024-02-04T23:40:15;4;3;2
50956;PMS5003;55361;50.876;20.634;2024-02-04T23:50:02;4;3;2
